createdAt,value
2019-03-06T00:02:07.935Z,98.10
2019-03-06T00:04:41.454Z,98.20
2019-03-06T00:07:16.484Z,98.10
2019-03-06T00:09:50.767Z,98.10
2019-03-06T00:12:24.254Z,98.00
2019-03-06T00:14:57.783Z,98.00
2019-03-06T00:17:31.248Z,98.00
2019-03-06T00:20:05.071Z,97.80
2019-03-06T00:22:38.723Z,97.90
2019-03-06T00:25:12.668Z,97.90
2019-03-06T00:27:46.357Z,98.00
2019-03-06T00:30:22.286Z,97.80
2019-03-06T00:32:55.951Z,97.80
2019-03-06T00:35:31.101Z,97.70
2019-03-06T00:38:04.788Z,97.60
2019-03-06T00:40:47.104Z,97.50
2019-03-06T00:43:20.479Z,97.70
2019-03-06T00:45:55.832Z,97.70
2019-03-06T00:48:29.495Z,97.50
2019-03-06T00:51:03.519Z,97.40
2019-03-06T00:53:37.075Z,97.40
2019-03-06T00:56:11.102Z,97.30
2019-03-06T00:58:46.088Z,97.30
2019-03-06T01:01:20.187Z,96.90
2019-03-06T01:03:54.087Z,97.10
2019-03-06T01:06:29.370Z,96.70
2019-03-06T01:09:03.427Z,96.90
2019-03-06T01:11:38.948Z,96.80
2019-03-06T01:14:12.898Z,96.50
2019-03-06T01:16:47.717Z,96.80
2019-03-06T01:19:21.710Z,96.70
2019-03-06T01:21:56.062Z,96.90
2019-03-06T01:24:32.851Z,96.50
2019-03-06T01:27:06.467Z,95.30
2019-03-06T01:29:40.337Z,96.40
2019-03-06T01:32:14.388Z,96.50
2019-03-06T01:34:49.507Z,96.10
2019-03-06T01:37:30.635Z,94.10
2019-03-06T01:40:05.243Z,95.40
2019-03-06T01:42:49.821Z,95.30
2019-03-06T01:45:23.693Z,94.40
2019-03-06T01:47:59.418Z,94.70
2019-03-06T01:50:32.989Z,91.70
2019-03-06T01:53:07.003Z,94.30
2019-03-06T01:55:40.554Z,88.80
2019-03-06T01:58:14.687Z,87.70
2019-03-06T02:00:48.797Z,93.60
2019-03-06T02:03:23.927Z,89.50
2019-03-06T02:05:57.971Z,92.20
2019-03-06T02:08:32.026Z,87.20
2019-03-06T02:11:05.891Z,90.10
2019-03-06T02:13:39.642Z,92.80
2019-03-06T02:16:13.387Z,88.70
2019-03-06T02:18:48.313Z,91.90
2019-03-06T02:21:22.225Z,92.70
2019-03-06T02:23:57.885Z,93.10
2019-03-06T02:26:31.700Z,90.20
2019-03-06T02:29:05.693Z,93.00
2019-03-06T02:31:39.349Z,92.40
2019-03-06T02:34:13.223Z,92.60
2019-03-06T02:36:46.880Z,92.60
2019-03-06T02:39:20.933Z,92.10
2019-03-06T02:41:54.414Z,91.10
2019-03-06T02:44:28.199Z,91.00
2019-03-06T02:47:02.316Z,92.20
2019-03-06T02:49:36.515Z,90.80
2019-03-06T02:52:10.539Z,91.60
2019-03-06T02:54:45.251Z,90.60
2019-03-06T02:57:18.963Z,91.50
2019-03-06T02:59:56.326Z,90.60
2019-03-06T03:02:43.007Z,91.40
2019-03-06T03:05:18.353Z,85.70
2019-03-06T03:07:53.629Z,91.20
2019-03-06T03:10:27.808Z,90.60
2019-03-06T03:13:02.926Z,91.70
2019-03-06T03:15:36.725Z,90.80
2019-03-06T03:18:09.944Z,90.00
2019-03-06T03:20:44.038Z,90.80
2019-03-06T03:23:18.724Z,90.80
2019-03-06T03:25:52.209Z,85.70
2019-03-06T03:28:25.757Z,83.90
2019-03-06T03:31:00.088Z,88.00
2019-03-06T03:33:35.231Z,84.30
2019-03-06T03:36:09.012Z,86.10
2019-03-06T03:38:42.279Z,78.60
2019-03-06T03:41:15.875Z,89.10
2019-03-06T03:43:49.307Z,88.10
2019-03-06T03:46:23.582Z,85.50
2019-03-06T03:48:56.880Z,81.90
2019-03-06T03:51:31.989Z,88.60
2019-03-06T03:54:05.580Z,82.20
2019-03-06T03:56:39.795Z,84.20
2019-03-06T03:59:13.382Z,86.30
2019-03-06T04:01:47.758Z,86.50
2019-03-06T04:04:21.684Z,89.90
2019-03-06T04:06:55.697Z,75.70
2019-03-06T04:09:29.114Z,85.60
2019-03-06T04:12:03.140Z,88.30
2019-03-06T04:14:36.485Z,87.50
2019-03-06T04:17:10.039Z,83.80
2019-03-06T04:19:43.317Z,87.80
2019-03-06T04:22:18.776Z,89.00
2019-03-06T04:24:53.247Z,85.50
2019-03-06T04:27:27.342Z,85.80
2019-03-06T04:30:01.318Z,86.90
2019-03-06T04:32:36.741Z,82.10
2019-03-06T04:35:10.182Z,85.30
2019-03-06T04:37:43.635Z,86.50
2019-03-06T04:40:18.087Z,82.50
2019-03-06T04:42:51.469Z,85.10
2019-03-06T04:45:24.926Z,84.40
2019-03-06T04:47:58.656Z,76.90
2019-03-06T04:50:32.418Z,86.60
2019-03-06T04:53:05.938Z,84.30
2019-03-06T04:55:40.060Z,84.30
2019-03-06T04:58:13.932Z,87.30
2019-03-06T05:00:48.377Z,80.10
2019-03-06T05:03:24.039Z,80.70
2019-03-06T05:05:58.690Z,84.00
2019-03-06T05:08:33.252Z,85.50
2019-03-06T05:11:07.814Z,87.60
2019-03-06T05:13:42.584Z,84.90
2019-03-06T05:16:17.945Z,84.20
2019-03-06T05:18:53.822Z,87.50
2019-03-06T05:21:28.557Z,81.60
2019-03-06T05:24:03.858Z,72.90
2019-03-06T05:26:38.036Z,87.10
2019-03-06T05:29:13.021Z,76.60
2019-03-06T05:32:05.244Z,85.20
2019-03-06T05:34:40.419Z,76.90
2019-03-06T05:37:25.622Z,84.80
2019-03-06T05:40:00.438Z,85.30
2019-03-06T05:42:35.818Z,85.80
2019-03-06T05:45:10.550Z,84.00
2019-03-06T05:47:44.676Z,76.40
2019-03-06T05:50:20.364Z,85.80
2019-03-06T05:52:54.776Z,85.00
2019-03-06T05:55:29.658Z,87.70
2019-03-06T05:58:04.192Z,85.00
2019-03-06T06:00:38.863Z,85.10
2019-03-06T06:03:13.193Z,86.50
2019-03-06T06:05:47.486Z,88.20
2019-03-06T06:08:22.411Z,87.70
2019-03-06T06:10:57.404Z,88.30
2019-03-06T06:13:31.811Z,86.70
2019-03-06T06:16:09.850Z,85.70
2019-03-06T06:18:44.478Z,84.80
2019-03-06T06:21:24.183Z,87.50
2019-03-06T06:24:01.811Z,88.00
2019-03-06T06:26:36.390Z,87.50
2019-03-06T06:29:10.259Z,84.70
2019-03-06T06:31:44.571Z,86.30
2019-03-06T06:34:18.736Z,88.00
2019-03-06T06:36:52.666Z,87.50
2019-03-06T06:39:26.584Z,76.60
2019-03-06T06:42:00.839Z,85.70
2019-03-06T06:44:34.110Z,84.80
2019-03-06T06:47:08.563Z,82.50
2019-03-06T06:49:41.815Z,85.40
2019-03-06T06:52:37.175Z,84.90
2019-03-06T06:55:18.676Z,85.00
2019-03-06T06:58:31.099Z,87.70
2019-03-06T07:01:08.716Z,85.60
2019-03-06T07:04:16.038Z,88.10
2019-03-06T07:06:53.488Z,88.40
2019-03-06T07:09:47.171Z,85.20
2019-03-06T07:12:25.238Z,84.60
2019-03-06T07:15:02.991Z,85.60
2019-03-06T07:17:56.104Z,88.20
2019-03-06T07:20:47.186Z,87.80
2019-03-06T07:23:30.744Z,86.80
2019-03-06T07:26:15.030Z,88.30
2019-03-06T07:28:52.965Z,87.20
2019-03-06T07:31:30.251Z,86.50
2019-03-06T07:34:04.832Z,83.00
2019-03-06T07:36:51.853Z,86.80
2019-03-06T07:39:26.857Z,87.80
2019-03-06T07:42:02.081Z,76.20
2019-03-06T07:44:50.032Z,84.60
2019-03-06T07:47:43.015Z,84.90
2019-03-06T07:50:18.157Z,81.20
2019-03-06T07:52:58.134Z,85.80
2019-03-06T07:55:33.273Z,76.80
2019-03-06T07:58:33.877Z,77.40
2019-03-06T08:01:16.842Z,82.90
2019-03-06T08:03:43.269Z,87.80
2019-03-06T08:06:17.553Z,87.20
2019-03-06T08:08:51.222Z,86.00
2019-03-06T08:11:25.879Z,87.70
2019-03-06T08:14:00.997Z,82.80
2019-03-06T08:16:40.483Z,81.40
2019-03-06T08:19:20.551Z,83.20
2019-03-06T08:22:01.997Z,84.70
2019-03-06T08:24:37.723Z,80.30
2019-03-06T08:27:11.730Z,78.30
2019-03-06T08:29:49.394Z,82.30
2019-03-06T08:32:28.066Z,86.50
2019-03-06T08:35:07.252Z,88.60
2019-03-06T08:37:41.146Z,79.80
2019-03-06T08:40:24.141Z,83.10
2019-03-06T08:42:57.270Z,85.40
2019-03-06T08:45:33.707Z,86.20
2019-03-06T08:48:10.252Z,87.90
2019-03-06T08:50:47.441Z,83.20
2019-03-06T08:53:22.550Z,86.70
2019-03-06T08:56:15.244Z,85.10
2019-03-06T08:59:02.310Z,89.20
2019-03-06T09:01:49.611Z,84.40
2019-03-06T09:04:27.766Z,88.30
2019-03-06T09:07:05.292Z,87.60
2019-03-06T09:09:44.607Z,85.10
2019-03-06T09:12:32.243Z,84.50
2019-03-06T09:15:09.651Z,89.40
2019-03-06T09:17:50.179Z,83.80
2019-03-06T09:20:37.290Z,88.30
2019-03-06T09:23:23.649Z,87.50
2019-03-06T09:26:05.701Z,82.50
2019-03-06T09:28:45.010Z,88.60
2019-03-06T09:31:38.158Z,86.20
2019-03-06T09:34:31.874Z,79.40
2019-03-06T09:37:19.876Z,87.50
2019-03-06T09:39:58.778Z,86.30
2019-03-06T09:42:51.096Z,86.70
2019-03-06T09:45:32.452Z,88.90
2019-03-06T09:48:29.792Z,87.40
2019-03-06T09:51:07.519Z,88.30
2019-03-06T09:53:51.107Z,89.10
2019-03-06T09:56:31.947Z,87.80
2019-03-06T09:59:06.915Z,90.00
2019-03-06T10:02:06.278Z,88.80
2019-03-06T10:04:33.935Z,86.50
2019-03-06T10:07:20.369Z,86.40
2019-03-06T10:10:10.698Z,89.60
2019-03-06T10:12:47.741Z,88.10
2019-03-06T10:15:24.471Z,90.20
2019-03-06T10:18:06.481Z,89.40
2019-03-06T10:20:40.815Z,89.40
2019-03-06T10:23:14.135Z,90.20
2019-03-06T10:25:50.758Z,90.00
2019-03-06T10:28:30.713Z,89.80
2019-03-06T10:31:05.938Z,90.20
2019-03-06T10:33:40.556Z,89.50
2019-03-06T10:36:17.788Z,90.50
2019-03-06T10:38:51.914Z,90.20
2019-03-06T10:41:26.019Z,89.50
2019-03-06T10:44:00.061Z,90.00
2019-03-06T10:46:34.491Z,88.70
2019-03-06T10:49:09.855Z,90.10
2019-03-06T10:51:45.035Z,90.00
2019-03-06T10:54:19.463Z,90.10
2019-03-06T10:56:53.431Z,84.90
2019-03-06T10:59:26.802Z,89.80
2019-03-06T11:02:04.425Z,89.40
2019-03-06T11:04:39.498Z,89.50
2019-03-06T11:07:13.740Z,90.00
2019-03-06T11:09:47.261Z,90.20
2019-03-06T11:12:21.198Z,86.40
2019-03-06T11:14:54.701Z,89.10
2019-03-06T11:17:29.242Z,89.40
2019-03-06T11:20:03.321Z,85.20
2019-03-06T11:22:37.357Z,90.40
2019-03-06T11:25:13.662Z,90.20
2019-03-06T11:27:47.655Z,89.80
2019-03-06T11:30:26.394Z,86.70
2019-03-06T11:33:00.785Z,90.50
2019-03-06T11:35:34.649Z,84.60
2019-03-06T11:38:10.103Z,90.50
2019-03-06T11:40:43.680Z,90.90
2019-03-06T11:43:17.896Z,90.30
2019-03-06T11:45:51.304Z,90.20
2019-03-06T11:48:25.261Z,90.90
2019-03-06T11:50:59.610Z,90.10
2019-03-06T11:53:33.608Z,89.60
2019-03-06T11:56:07.763Z,91.20
2019-03-06T11:58:41.581Z,89.70
2019-03-06T12:01:19.130Z,91.40
2019-03-06T12:03:53.274Z,91.30
2019-03-06T12:06:27.417Z,91.20
2019-03-06T12:09:01.563Z,91.60
2019-03-06T12:11:39.377Z,90.30
2019-03-06T12:14:13.248Z,91.50
2019-03-06T12:16:47.243Z,91.80
2019-03-06T12:19:22.625Z,91.00
2019-03-06T12:21:57.043Z,90.50
2019-03-06T12:24:30.972Z,91.20
2019-03-06T12:27:04.963Z,91.00
2019-03-06T12:29:39.005Z,90.50
2019-03-06T12:32:12.907Z,89.00
2019-03-06T12:34:46.411Z,91.70
2019-03-06T12:37:20.466Z,91.60
2019-03-06T12:39:54.276Z,91.80
2019-03-06T12:42:28.352Z,91.80
2019-03-06T12:45:01.626Z,92.10
2019-03-06T12:47:36.046Z,91.10
2019-03-06T12:50:17.840Z,91.60
2019-03-06T12:52:50.098Z,92.20
2019-03-06T12:55:23.883Z,91.70
2019-03-06T12:57:59.650Z,92.40
2019-03-06T13:00:32.712Z,92.40
2019-03-06T13:03:07.063Z,92.70
2019-03-06T13:05:41.304Z,92.60
2019-03-06T13:08:19.657Z,93.40
2019-03-06T13:10:50.159Z,93.30
2019-03-06T13:13:35.032Z,93.40
2019-03-06T13:15:59.564Z,94.20
2019-03-06T13:18:33.203Z,94.40
2019-03-06T13:21:08.403Z,93.50
2019-03-06T13:23:42.963Z,93.80
2019-03-06T13:26:16.457Z,93.60
2019-03-06T13:28:57.422Z,93.90
2019-03-06T13:31:28.870Z,94.60
2019-03-06T13:34:04.702Z,93.80
2019-03-06T13:36:39.553Z,94.10
2019-03-06T13:39:13.905Z,93.90
2019-03-06T13:41:47.443Z,92.50
2019-03-06T13:44:21.344Z,90.10
2019-03-06T13:46:55.120Z,91.60
2019-03-06T13:49:29.284Z,94.10
2019-03-06T13:52:03.537Z,92.90
2019-03-06T13:54:39.445Z,93.50
2019-03-06T13:57:14.535Z,94.00
2019-03-06T13:59:49.054Z,92.60
2019-03-06T14:02:24.186Z,94.10
2019-03-06T14:04:58.419Z,94.40
2019-03-06T14:07:31.981Z,94.50
2019-03-06T14:10:06.110Z,90.50
2019-03-06T14:12:39.734Z,94.40
2019-03-06T14:15:15.765Z,93.30
2019-03-06T14:17:51.184Z,94.10
2019-03-06T14:20:26.799Z,93.90
2019-03-06T14:23:00.199Z,94.40
2019-03-06T14:25:34.896Z,94.60
2019-03-06T14:28:09.039Z,94.20
2019-03-06T14:30:44.615Z,94.30
2019-03-06T14:33:18.543Z,94.30
2019-03-06T14:35:52.531Z,94.30
2019-03-06T14:38:26.039Z,94.10
2019-03-06T14:41:00.393Z,94.40
2019-03-06T14:43:33.752Z,93.00
2019-03-06T14:46:16.108Z,91.70
2019-03-06T14:48:42.521Z,92.90
2019-03-06T14:51:16.645Z,88.60
2019-03-06T14:53:49.984Z,93.40
2019-03-06T14:56:23.919Z,91.50
2019-03-06T14:58:57.605Z,93.30
2019-03-06T15:01:31.647Z,94.30
2019-03-06T15:04:05.787Z,93.50
2019-03-06T15:06:39.486Z,92.30
2019-03-06T15:09:27.770Z,92.20
2019-03-06T15:12:01.694Z,94.20
2019-03-06T15:14:36.353Z,90.10
2019-03-06T15:17:10.354Z,90.10
2019-03-06T15:19:43.876Z,90.70
2019-03-06T15:22:17.761Z,94.20
2019-03-06T15:24:53.246Z,92.70
2019-03-06T15:27:28.303Z,94.20
2019-03-06T15:30:02.266Z,94.60
2019-03-06T15:32:36.456Z,94.50
2019-03-06T15:35:12.643Z,94.30
2019-03-06T15:37:56.330Z,89.30
2019-03-06T15:40:38.382Z,89.40
2019-03-06T15:43:14.979Z,94.20
2019-03-06T15:45:49.673Z,94.50
2019-03-06T15:48:23.539Z,94.30
2019-03-06T15:51:01.007Z,93.60
2019-03-06T15:53:34.850Z,93.80
2019-03-06T15:56:08.524Z,92.30
2019-03-06T15:58:44.790Z,93.30
2019-03-06T16:01:19.211Z,94.30
2019-03-06T16:03:53.356Z,94.20
2019-03-06T16:06:26.936Z,94.60
2019-03-06T16:09:03.876Z,93.10
2019-03-06T16:11:39.763Z,93.30
2019-03-06T16:14:14.032Z,92.00
2019-03-06T16:16:47.791Z,94.10
2019-03-06T16:19:22.037Z,93.80
2019-03-06T16:21:56.894Z,93.70
2019-03-06T16:24:30.778Z,93.20
2019-03-06T16:27:04.620Z,93.40
2019-03-06T16:29:39.685Z,94.50
2019-03-06T16:32:13.669Z,93.50
2019-03-06T16:34:48.971Z,93.10
2019-03-06T16:37:23.318Z,95.00
2019-03-06T16:39:57.156Z,95.00
2019-03-06T16:42:31.419Z,94.10
2019-03-06T16:45:04.856Z,94.00
2019-03-06T16:47:38.948Z,93.40
2019-03-06T16:50:16.252Z,94.10
2019-03-06T16:52:50.052Z,93.70
2019-03-06T16:55:25.552Z,94.20
2019-03-06T16:57:59.695Z,93.50
2019-03-06T17:00:34.893Z,92.40
2019-03-06T17:03:13.387Z,92.60
2019-03-06T17:05:47.284Z,94.80
2019-03-06T17:08:20.903Z,94.90
2019-03-06T17:10:54.325Z,94.10
2019-03-06T17:13:28.108Z,94.50
2019-03-06T17:16:01.835Z,94.20
2019-03-06T17:18:35.499Z,94.50
2019-03-06T17:21:09.164Z,94.90
2019-03-06T17:23:42.664Z,92.70
2019-03-06T17:26:16.605Z,92.40
2019-03-06T17:28:50.217Z,93.60
2019-03-06T17:31:24.688Z,93.20
2019-03-06T17:33:59.406Z,94.70
2019-03-06T17:36:32.758Z,94.40
2019-03-06T17:39:07.036Z,94.00
2019-03-06T17:41:41.644Z,94.60
2019-03-06T17:44:15.547Z,93.20
2019-03-06T17:46:48.876Z,94.80
2019-03-06T17:49:22.648Z,93.90
2019-03-06T17:51:55.958Z,94.60
2019-03-06T17:54:31.830Z,92.60
2019-03-06T17:57:06.036Z,93.70
2019-03-06T17:59:40.216Z,94.80
2019-03-06T18:02:14.800Z,95.00
2019-03-06T18:04:48.447Z,95.20
2019-03-06T18:07:21.687Z,95.60
2019-03-06T18:09:55.227Z,94.50
2019-03-06T18:12:28.575Z,94.50
2019-03-06T18:15:02.471Z,95.40
2019-03-06T18:17:36.103Z,94.80
2019-03-06T18:20:12.101Z,94.20
2019-03-06T18:22:45.720Z,95.00
2019-03-06T18:25:23.031Z,94.30
2019-03-06T18:27:57.120Z,95.00
2019-03-06T18:30:31.463Z,95.20
2019-03-06T18:33:05.524Z,95.20
2019-03-06T18:35:39.269Z,94.80
2019-03-06T18:38:13.047Z,95.70
2019-03-06T18:40:46.973Z,95.80
2019-03-06T18:43:20.730Z,95.20
2019-03-06T18:45:54.268Z,94.30
2019-03-06T18:48:28.691Z,93.10
2019-03-06T18:51:03.115Z,95.40
2019-03-06T18:53:36.459Z,96.10
2019-03-06T18:56:10.094Z,95.90
2019-03-06T18:58:43.341Z,95.90
2019-03-06T19:01:17.586Z,95.50
2019-03-06T19:03:51.563Z,96.50
2019-03-06T19:06:25.595Z,95.80
2019-03-06T19:08:59.268Z,93.90
2019-03-06T19:11:32.681Z,95.80
2019-03-06T19:14:06.754Z,95.80
2019-03-06T19:16:40.482Z,95.60
2019-03-06T19:19:14.264Z,95.20
2019-03-06T19:21:48.165Z,95.90
2019-03-06T19:24:22.027Z,96.10
2019-03-06T19:26:55.988Z,96.00
2019-03-06T19:29:29.489Z,96.40
2019-03-06T19:32:03.459Z,96.40
2019-03-06T19:34:37.256Z,96.60
2019-03-06T19:37:11.121Z,96.80
2019-03-06T19:39:46.695Z,97.20
2019-03-06T19:42:20.467Z,96.40
2019-03-06T19:44:54.228Z,96.70
2019-03-06T19:47:27.786Z,96.10
2019-03-06T19:50:01.422Z,97.40
2019-03-06T19:52:35.280Z,96.90
2019-03-06T19:55:11.267Z,97.20
2019-03-06T19:58:04.753Z,97.10
2019-03-06T20:00:38.807Z,97.50
2019-03-06T20:03:12.760Z,97.10
2019-03-06T20:05:46.567Z,97.40
2019-03-06T20:08:19.920Z,96.40
2019-03-06T20:10:54.207Z,96.60
2019-03-06T20:13:27.626Z,96.90
2019-03-06T20:16:01.284Z,96.80
2019-03-06T20:18:34.651Z,96.00
2019-03-06T20:21:08.384Z,96.90
2019-03-06T20:23:41.814Z,96.80
2019-03-06T20:26:15.797Z,96.20
2019-03-06T20:28:49.563Z,97.50
2019-03-06T20:31:23.307Z,97.90
2019-03-06T20:33:56.650Z,93.20
2019-03-06T20:36:30.481Z,97.40
2019-03-06T20:39:04.102Z,95.80
2019-03-06T20:41:38.983Z,97.10
2019-03-06T20:44:12.220Z,96.60
2019-03-06T20:46:46.220Z,96.80
2019-03-06T20:49:19.576Z,97.00
2019-03-06T20:51:53.531Z,97.30
2019-03-06T20:54:27.469Z,96.80
2019-03-06T20:57:01.153Z,96.70
2019-03-06T20:59:34.860Z,96.50
2019-03-06T21:02:08.495Z,96.40
2019-03-06T21:04:41.914Z,97.10
2019-03-06T21:07:15.351Z,97.20
2019-03-06T21:09:48.669Z,96.70
2019-03-06T21:12:22.136Z,97.10
2019-03-06T21:14:55.475Z,97.00
2019-03-06T21:17:29.142Z,97.30
2019-03-06T21:20:03.384Z,97.30
2019-03-06T21:22:38.263Z,97.90
2019-03-06T21:25:14.127Z,97.50
2019-03-06T21:27:47.904Z,97.50
2019-03-06T21:30:37.456Z,97.50
2019-03-06T21:33:11.244Z,97.50
2019-03-06T21:35:44.697Z,96.80
2019-03-06T21:38:18.770Z,96.60
2019-03-06T21:40:52.547Z,97.40
2019-03-06T21:43:26.220Z,97.90
2019-03-06T21:46:01.389Z,97.80
2019-03-06T21:48:34.539Z,97.30
2019-03-06T21:51:08.186Z,97.60
2019-03-06T21:53:41.877Z,97.60
2019-03-06T21:56:15.557Z,97.50
2019-03-06T21:58:49.236Z,95.80
2019-03-06T22:01:23.063Z,97.20
2019-03-06T22:03:56.753Z,98.10
2019-03-06T22:06:30.057Z,98.30
2019-03-06T22:09:03.760Z,96.00
2019-03-06T22:11:38.733Z,98.20
2019-03-06T22:14:12.159Z,97.30
2019-03-06T22:16:45.719Z,97.90
2019-03-06T22:19:19.191Z,97.70
2019-03-06T22:21:52.620Z,97.60
2019-03-06T22:24:26.158Z,97.90
2019-03-06T22:27:00.703Z,98.10
2019-03-06T22:29:34.695Z,97.90
2019-03-06T22:32:08.463Z,97.20
2019-03-06T22:34:41.947Z,97.90
2019-03-06T22:37:16.395Z,98.10
2019-03-06T22:39:50.586Z,98.40
2019-03-06T22:42:24.467Z,98.00
2019-03-06T22:44:58.064Z,97.60
2019-03-06T22:47:31.529Z,97.70
2019-03-06T22:50:05.442Z,97.70
2019-03-06T22:52:38.990Z,97.80
2019-03-06T22:55:17.991Z,98.30
2019-03-06T22:57:51.526Z,98.40
2019-03-06T23:00:34.079Z,97.20
2019-03-06T23:03:09.133Z,97.90
2019-03-06T23:05:42.905Z,98.30
2019-03-06T23:08:16.765Z,98.30
2019-03-06T23:10:50.419Z,98.30
2019-03-06T23:13:23.911Z,98.20
2019-03-06T23:15:57.468Z,98.40
2019-03-06T23:18:30.964Z,98.80
2019-03-06T23:21:04.349Z,99.10
2019-03-06T23:23:37.839Z,99.00
2019-03-06T23:26:11.248Z,99.10
2019-03-06T23:28:44.756Z,99.40
2019-03-06T23:31:18.064Z,98.90
2019-03-06T23:33:51.596Z,99.00
2019-03-06T23:36:24.856Z,99.20
2019-03-06T23:38:59.370Z,98.90
2019-03-06T23:41:33.023Z,99.20
2019-03-06T23:44:06.450Z,97.90
2019-03-06T23:46:40.298Z,98.70
2019-03-06T23:49:14.041Z,99.00
2019-03-06T23:51:48.709Z,99.00
2019-03-06T23:54:22.113Z,99.00
2019-03-06T23:56:55.999Z,98.80
2019-03-06T23:59:30.316Z,98.70
